Station Historical Data
Daily Summary for January 16, 2017 Units:  Metric    English   Both
« Previous Day
Next Day »
Daily Weekly Monthly Yearly Custom
  High: Low: Average:
Temperature: 2.3 °C -7.7 °C -3.1 °C
Dew Point: -2.2 °C -9.4 °C -6.5 °C
Humidity: 91% 62% 78%
Wind Speed: 22.5km/h 0km/h 1.4km/h
Wind Gust: 22.5km/h - -
Wind- - SSW
Pressure: 1030 hPa 1024.3 hPa -
Precipitation: 0 mm    
Historical Graphs
 
 
Tabular Data for January 16, 2017
Time Temperature Dew Point Pressure Wind Wind Speed Wind Gust Humidity Rainfall Rate (Hourly)
00:04 -6.5 °C -8.2 °C 1029.7 hPa Calm     88% 0 mm
00:09 -6.7 °C -8.4 °C 1029.7 hPa Calm     87% 0 mm
00:14 -6.6 °C -8.3 °C 1029.3 hPa Calm     88% 0 mm
00:19 -6.7 °C -8.4 °C 1029.3 hPa Calm     88% 0 mm
00:29 -6.8 °C -8.5 °C 1029.3 hPa Calm     88% 0 mm
00:34 -6.9 °C -8.7 °C 1029.3 hPa Calm     87% 0 mm
00:39 -7.1 °C -8.7 °C 1029.3 hPa Calm     88% 0 mm
00:44 -7.2 °C -8.8 °C 1029.3 hPa Calm     88% 0 mm
00:49 -7.2 °C -8.9 °C 1029.3 hPa Calm     88% 0 mm
00:54 -7.2 °C -8.9 °C 1029.3 hPa Calm     88% 0 mm
00:59 -7.3 °C -9 °C 1029.3 hPa Calm     88% 0 mm
01:04 -7.6 °C -9.3 °C 1029.3 hPa Calm     87% 0 mm
01:09 -7.6 °C -9.2 °C 1029.3 hPa Calm     88% 0 mm
01:14 -7.5 °C -9.2 °C 1029.3 hPa Calm     88% 0 mm
01:19 -7.5 °C -9.2 °C 1029.3 hPa Calm     88% 0 mm
01:24 -7.4 °C -8.9 °C 1029.3 hPa Calm     89% 0 mm
01:29 -7.4 °C -8.9 °C 1029.3 hPa Calm     89% 0 mm
01:34 -7.4 °C -8.9 °C 1029.3 hPa Calm     89% 0 mm
01:39 -7.4 °C -9.1 °C 1029.3 hPa Calm     88% 0 mm
01:44 -7.4 °C -9.1 °C 1029.3 hPa Calm     88% 0 mm
01:49 -7.3 °C -8.8 °C 1029.3 hPa Calm     89% 0 mm
01:54 -7.3 °C -8.8 °C 1029.7 hPa Calm     89% 0 mm
01:59 -7.3 °C -8.8 °C 1029.7 hPa Calm     89% 0 mm
02:04 -7.2 °C -8.7 °C 1029.7 hPa Calm     89% 0 mm
02:09 -7.2 °C -8.7 °C 1029.7 hPa Calm     89% 0 mm
02:14 -7.1 °C -8.7 °C 1029.7 hPa Calm     88% 0 mm
02:19 -7.1 °C -8.7 °C 1029.7 hPa Calm     88% 0 mm
02:24 -7.1 °C -8.7 °C 1029.7 hPa Calm     88% 0 mm
02:29 -6.9 °C -8.6 °C 1030 hPa Calm     88% 0 mm
02:34 -6.9 °C -8.7 °C 1030 hPa Calm     87% 0 mm
02:39 -6.9 °C -8.7 °C 1030 hPa Calm     87% 0 mm
02:44 -6.9 °C -8.7 °C 1030 hPa Calm     87% 0 mm
02:49 -6.9 °C -8.7 °C 1030 hPa Calm     87% 0 mm
02:54 -6.9 °C -8.7 °C 1030 hPa Calm     87% 0 mm
02:59 -6.9 °C -8.9 °C 1030 hPa Calm     86% 0 mm
03:04 -7.1 °C -9 °C 1029.7 hPa Calm     86% 0 mm
03:09 -7.2 °C -9.1 °C 1029.7 hPa Calm     86% 0 mm
03:14 -7.3 °C -9.2 °C 1029.7 hPa Calm     86% 0 mm
03:19 -7.3 °C -9.1 °C 1029.7 hPa Calm     87% 0 mm
03:24 -7.3 °C -9.3 °C 1029.7 hPa Calm     86% 0 mm
03:29 -7.3 °C -9.1 °C 1029.3 hPa Calm     87% 0 mm
03:34 -7.4 °C -9.2 °C 1029.3 hPa Calm     87% 0 mm
03:39 -7.3 °C -9.1 °C 1029.3 hPa Calm     87% 0 mm
03:44 -7.4 °C -9.2 °C 1029.3 hPa Calm     87% 0 mm
03:49 -7.5 °C -9.3 °C 1029.3 hPa Calm     87% 0 mm
03:54 -7.5 °C -9.3 °C 1029 hPa Calm     87% 0 mm
03:59 -7.5 °C -9.3 °C 1029.3 hPa Calm     87% 0 mm
04:04 -7.4 °C -9.2 °C 1029.3 hPa Calm     87% 0 mm
04:09 -7.3 °C -9.1 °C 1029 hPa Calm     87% 0 mm
04:14 -7.3 °C -9.1 °C 1029 hPa Calm     87% 0 mm
04:19 -7.2 °C -9 °C 1029 hPa Calm     87% 0 mm
04:24 -7.2 °C -9 °C 1029 hPa Calm     87% 0 mm
04:29 -7.2 °C -8.9 °C 1029 hPa Calm     87% 0 mm
04:34 -7.1 °C -8.8 °C 1029 hPa Calm     88% 0 mm
04:39 -7.2 °C -9 °C 1029.3 hPa Calm     87% 0 mm
04:44 -7.3 °C -9.1 °C 1029.3 hPa Calm     87% 0 mm
04:49 -7.4 °C -9.2 °C 1029.3 hPa Calm     87% 0 mm
04:54 -7.4 °C -9.2 °C 1029.3 hPa Calm     87% 0 mm
04:59 -7.5 °C -9.3 °C 1029.3 hPa Calm     87% 0 mm
05:04 -7.6 °C -9.3 °C 1029.3 hPa Calm     87% 0 mm
05:09 -7.6 °C -9.3 °C 1029.3 hPa Calm     87% 0 mm
05:14 -7.6 °C -9.4 °C 1029.3 hPa Calm     87% 0 mm
05:19 -7.6 °C -9.3 °C 1029.3 hPa Calm     88% 0 mm
05:24 -7.7 °C -9.3 °C 1029.3 hPa Calm     88% 0 mm
05:29 -7.6 °C -9.3 °C 1029.3 hPa Calm     88% 0 mm
05:34 -7.6 °C -9.2 °C 1029.3 hPa Calm     88% 0 mm
05:39 -7.6 °C -9.2 °C 1029.3 hPa Calm     88% 0 mm
05:44 -7.5 °C -9.2 °C 1029.3 hPa Calm     88% 0 mm
05:49 -7.4 °C -8.9 °C 1029.3 hPa Calm     89% 0 mm
05:54 -7.4 °C -8.9 °C 1029.3 hPa Calm     89% 0 mm
05:59 -7.3 °C -8.8 °C 1029.3 hPa Calm     89% 0 mm
06:04 -7.3 °C -8.8 °C 1029.3 hPa Calm     89% 0 mm
06:09 -7.3 °C -8.8 °C 1029.3 hPa Calm     89% 0 mm
06:14 -7.3 °C -8.8 °C 1029.3 hPa Calm     89% 0 mm
06:19 -7.3 °C -8.8 °C 1029.3 hPa Calm     89% 0 mm
06:24 -7.3 °C -8.8 °C 1029.3 hPa Calm     89% 0 mm
06:29 -7.3 °C -9 °C 1029.3 hPa Calm     88% 0 mm
06:34 -7.4 °C -9.1 °C 1029.3 hPa Calm     88% 0 mm
06:39 -7.4 °C -9.1 °C 1029.3 hPa Calm     88% 0 mm
06:44 -7.5 °C -9.2 °C 1029.3 hPa Calm     88% 0 mm
06:49 -7.6 °C -9.2 °C 1029.3 hPa Calm     88% 0 mm
06:54 -7.6 °C -9.3 °C 1029.3 hPa Calm     88% 0 mm
06:59 -7.7 °C -9.3 °C 1029.3 hPa Calm     88% 0 mm
07:04 -7.7 °C -9.3 °C 1029.7 hPa Calm     88% 0 mm
07:09 -7.7 °C -9.3 °C 1029.3 hPa Calm     88% 0 mm
07:14 -7.7 °C -9.4 °C 1029.3 hPa Calm     88% 0 mm
07:19 -7.7 °C -9.3 °C 1029.3 hPa Calm     88% 0 mm
07:24 -7.7 °C -9.3 °C 1029.3 hPa Calm     88% 0 mm
07:29 -7.6 °C -9.1 °C 1029.3 hPa Calm     89% 0 mm
07:34 -7.6 °C -9.1 °C 1029.3 hPa Calm     89% 0 mm
07:39 -7.6 °C -9.1 °C 1029.3 hPa Calm     89% 0 mm
07:44 -7.4 °C -8.9 °C 1029.3 hPa SW 1.6 km/h 6.4 km/h 89% 0 mm
07:49 -7.1 °C -8.5 °C 1029.3 hPa SSW 3.2 km/h 6.4 km/h 90% 0 mm
07:54 -6.8 °C -8.2 °C 1029.3 hPa South 4.8 km/h 8 km/h 90% 0 mm
07:59 -6.5 °C -7.9 °C 1029.3 hPa SSW 3.2 km/h 8 km/h 90% 0 mm
08:04 -6.2 °C -7.4 °C 1029.3 hPa SSW 3.2 km/h 9.7 km/h 91% 0 mm
08:09 -6 °C -7.4 °C 1029.3 hPa SSW 3.2 km/h 9.7 km/h 90% 0 mm
08:14 -5.8 °C -7.2 °C 1029.3 hPa South 3.2 km/h 8 km/h 90% 0 mm
08:19 -5.6 °C -6.9 °C 1029.7 hPa SSW 3.2 km/h 9.7 km/h 90% 0 mm
08:24 -5.4 °C -6.9 °C 1029.7 hPa SSW 3.2 km/h 6.4 km/h 89% 0 mm
08:29 -5.3 °C -6.8 °C 1029.7 hPa South 4.8 km/h 9.7 km/h 89% 0 mm
08:34 -4.8 °C -6.4 °C 1029.7 hPa South 4.8 km/h 9.7 km/h 88% 0 mm
08:39 -4.3 °C -6.4 °C 1029.7 hPa SSW 1.6 km/h 6.4 km/h 85% 0 mm
08:44 -4 °C -6.4 °C 1029.7 hPa SSW 6.4 km/h 8 km/h 83% 0 mm
08:49 -3.8 °C -6.4 °C 1029.7 hPa SSW 3.2 km/h 8 km/h 82% 0 mm
08:54 -3.7 °C -6.3 °C 1029.3 hPa South 3.2 km/h 9.7 km/h 82% 0 mm
08:59 -3.6 °C -6.3 °C 1029.7 hPa South 3.2 km/h 9.7 km/h 81% 0 mm
09:04 -3.3 °C -6.1 °C 1029.7 hPa South 3.2 km/h 8 km/h 81% 0 mm
09:09 -3.2 °C -6.1 °C 1029.7 hPa South 3.2 km/h 6.4 km/h 80% 0 mm
09:14 -2.9 °C -5.9 °C 1029.7 hPa SSW 3.2 km/h 6.4 km/h 80% 0 mm
09:19 -2.6 °C -5.6 °C 1029.7 hPa SSW 3.2 km/h 6.4 km/h 80% 0 mm
09:24 -2.3 °C -5.5 °C 1029.7 hPa WSW 6.4 km/h 8 km/h 79% 0 mm
09:29 -2.2 °C -5.5 °C 1029.7 hPa South 4.8 km/h 11.3 km/h 78% 0 mm
09:34 -2.1 °C -5.6 °C 1029.7 hPa SSW 4.8 km/h 11.3 km/h 77% 0 mm
09:39 -1.8 °C -5.3 °C 1029.7 hPa SSW 1.6 km/h 11.3 km/h 77% 0 mm
09:44 -1.7 °C -5.2 °C 1029.7 hPa SW 6.4 km/h 8 km/h 77% 0 mm
09:49 -1.6 °C -5.2 °C 1030 hPa South 6.4 km/h 11.3 km/h 76% 0 mm
09:54 -1.3 °C -5 °C 1030 hPa SW 6.4 km/h 9.7 km/h 76% 0 mm
09:59 -1 °C -4.7 °C 1030 hPa SSW 3.2 km/h 9.7 km/h 76% 0 mm
10:04 -0.9 °C -4.6 °C 1029.7 hPa SSW 3.2 km/h 8 km/h 76% 0 mm
10:09 -0.6 °C -4.5 °C 1029.7 hPa SSW 3.2 km/h 8 km/h 75% 0 mm
10:14 -0.3 °C -4.6 °C 1029.7 hPa SW 4.8 km/h 14.5 km/h 73% 0 mm
10:19 -0.1 °C -4.3 °C 1030 hPa SW 6.4 km/h 14.5 km/h 73% 0 mm
10:24 0.1 °C -4.4 °C 1029.7 hPa SW 9.7 km/h 12.9 km/h 72% 0 mm
10:29 0.2 °C -4.4 °C 1030 hPa SW 8 km/h 12.9 km/h 71% 0 mm
10:34 0.4 °C -4.3 °C 1030 hPa SW 8 km/h 17.7 km/h 71% 0 mm
10:39 0.7 °C -3.8 °C 1029.7 hPa SW 11.3 km/h 12.9 km/h 72% 0 mm
10:44 0.8 °C -3.5 °C 1030 hPa WSW 11.3 km/h 19.3 km/h 73% 0 mm
10:49 0.7 °C -3.9 °C 1029.7 hPa WSW 22.5 km/h 22.5 km/h 71% 0 mm
10:54 0.8 °C -3.9 °C 1029.7 hPa SSW 11.3 km/h 22.5 km/h 71% 0 mm
13:40 2.3 °C -4.3 °C 1027.3 hPa SW 6.4 km/h 16.1 km/h 62% 0 mm
16:34 1.6 °C -4.9 °C 1026.3 hPa SSW 3.2 km/h 6.4 km/h 62% 0 mm
16:39 1.6 °C -4.5 °C 1026.6 hPa SSW 3.2 km/h 6.4 km/h 64% 0 mm
16:44 1.5 °C -4.6 °C 1026.6 hPa SW 3.2 km/h 8 km/h 64% 0 mm
16:49 1.4 °C -4.6 °C 1026.3 hPa SSW 4.8 km/h 8 km/h 64% 0 mm
16:54 1.3 °C -4.7 °C 1026.3 hPa Calm   9.7 km/h 64% 0 mm
16:59 1.3 °C -4.8 °C 1026.3 hPa SSW 4.8 km/h 9.7 km/h 64% 0 mm
17:04 1.3 °C -4.8 °C 1026.3 hPa SSW 1.6 km/h 8 km/h 64% 0 mm
17:09 1.2 °C -4.9 °C 1026.3 hPa SW 1.6 km/h 9.7 km/h 64% 0 mm
17:14 1.2 °C -4.7 °C 1026.3 hPa SW 1.6 km/h 8 km/h 65% 0 mm
17:19 1.2 °C -4.7 °C 1026.3 hPa SSW 3.2 km/h 6.4 km/h 65% 0 mm
17:24 1.1 °C -4.7 °C 1026.3 hPa SW 3.2 km/h 8 km/h 65% 0 mm
17:29 1.1 °C -4.7 °C 1026.3 hPa SW 1.6 km/h 8 km/h 65% 0 mm
17:34 1.1 °C -4.6 °C 1026.6 hPa SW 1.6 km/h 6.4 km/h 66% 0 mm
17:39 1.1 °C -4.8 °C 1026.6 hPa SW 4.8 km/h 9.7 km/h 65% 0 mm
17:44 1.1 °C -4.8 °C 1026.3 hPa SW 6.4 km/h 11.3 km/h 65% 0 mm
17:49 1.1 °C -4.6 °C 1026.3 hPa SW 4.8 km/h 11.3 km/h 66% 0 mm
17:54 1.1 °C -4.6 °C 1026.3 hPa SSW 3.2 km/h 8 km/h 66% 0 mm
17:59 1.1 °C -4.4 °C 1026.3 hPa SSW 6.4 km/h 8 km/h 67% 0 mm
18:04 1 °C -4.4 °C 1026.3 hPa SSW 9.7 km/h 16.1 km/h 67% 0 mm
18:09 1 °C -4.4 °C 1026 hPa South 4.8 km/h 11.3 km/h 67% 0 mm
18:14 1 °C -4.7 °C 1026 hPa SSW 6.4 km/h 8 km/h 66% 0 mm
18:19 1 °C -4.7 °C 1026 hPa SW 6.4 km/h 11.3 km/h 66% 0 mm
18:24 1.1 °C -4.6 °C 1026 hPa SW 4.8 km/h 11.3 km/h 66% 0 mm
18:29 1.1 °C -4.6 °C 1026 hPa SW 3.2 km/h 9.7 km/h 66% 0 mm
18:34 1.1 °C -4.6 °C 1026 hPa Calm   4.8 km/h 66% 0 mm
18:39 1.1 °C -4.8 °C 1026 hPa SW 1.6 km/h 4.8 km/h 65% 0 mm
18:44 1.1 °C -4.6 °C 1026 hPa SW 1.6 km/h 6.4 km/h 66% 0 mm
18:49 1.1 °C -4.6 °C 1026 hPa WSW 1.6 km/h 6.4 km/h 66% 0 mm
18:54 1.1 °C -4.6 °C 1026 hPa Calm   1.6 km/h 66% 0 mm
18:59 1.1 °C -4.6 °C 1026 hPa Calm   4.8 km/h 66% 0 mm
19:04 1.1 °C -4.6 °C 1026 hPa SSW 3.2 km/h 3.2 km/h 66% 0 mm
19:09 1.1 °C -4.6 °C 1025.6 hPa Calm   4.8 km/h 66% 0 mm
19:14 1.1 °C -4.8 °C 1025.6 hPa Calm   1.6 km/h 65% 0 mm
19:19 1.1 °C -4.8 °C 1025.6 hPa Calm   3.2 km/h 65% 0 mm
19:24 1.1 °C -5 °C 1025.6 hPa Calm     64% 0 mm
19:29 1.1 °C -5 °C 1025.6 hPa Calm     64% 0 mm
19:34 1.1 °C -5 °C 1025.6 hPa Calm     64% 0 mm
19:39 1.1 °C -5 °C 1025.6 hPa Calm     64% 0 mm
19:44 1 °C -4.8 °C 1025.6 hPa Calm     65% 0 mm
19:49 1 °C -4.7 °C 1025.6 hPa Calm     66% 0 mm
19:54 1 °C -4.8 °C 1025.6 hPa Calm     65% 0 mm
19:59 1.1 °C -5 °C 1025.6 hPa Calm     64% 0 mm
20:04 1.1 °C -4.8 °C 1025.6 hPa Calm     65% 0 mm
20:09 1.1 °C -4.8 °C 1025.6 hPa Calm     65% 0 mm
20:14 1.1 °C -4.7 °C 1025.6 hPa Calm     65% 0 mm
20:19 1.1 °C -4.8 °C 1025.6 hPa Calm     65% 0 mm
20:24 1.1 °C -4.7 °C 1025.6 hPa Calm     65% 0 mm
20:29 1.2 °C -4.7 °C 1025.6 hPa Calm     65% 0 mm
20:34 1.2 °C -4.5 °C 1025.6 hPa Calm   1.6 km/h 66% 0 mm
20:39 1.2 °C -4.3 °C 1025.6 hPa Calm   1.6 km/h 67% 0 mm
20:44 1.2 °C -4.7 °C 1025.3 hPa Calm     65% 0 mm
20:49 1.2 °C -4.5 °C 1025.6 hPa Calm     66% 0 mm
20:54 1.2 °C -4.5 °C 1025.3 hPa Calm     66% 0 mm
20:59 1.2 °C -4.5 °C 1025.3 hPa Calm     66% 0 mm
21:04 1.2 °C -4.5 °C 1025.3 hPa Calm     66% 0 mm
21:09 1.2 °C -4.5 °C 1025.3 hPa Calm     66% 0 mm
21:14 1.2 °C -4.3 °C 1025.3 hPa Calm     67% 0 mm
21:19 1.1 °C -4.2 °C 1025.3 hPa Calm     68% 0 mm
21:24 1.1 °C -4.2 °C 1025.3 hPa Calm     68% 0 mm
21:29 1.1 °C -4.3 °C 1025.3 hPa Calm     67% 0 mm
21:34 1.1 °C -4.2 °C 1025.3 hPa Calm     68% 0 mm
21:39 1.1 °C -4.2 °C 1025.3 hPa Calm     68% 0 mm
21:44 1.1 °C -4 °C 1025.3 hPa Calm     69% 0 mm
21:49 1.1 °C -3.9 °C 1025.3 hPa Calm     69% 0 mm
21:54 1.1 °C -3.9 °C 1024.9 hPa Calm     69% 0 mm
21:59 1.1 °C -3.9 °C 1024.9 hPa Calm     69% 0 mm
22:04 1.1 °C -3.9 °C 1024.9 hPa Calm     69% 0 mm
22:09 1.1 °C -3.9 °C 1024.9 hPa Calm     69% 0 mm
22:14 1.1 °C -3.9 °C 1024.9 hPa Calm     69% 0 mm
22:19 1.2 °C -4.1 °C 1024.6 hPa Calm     68% 0 mm
22:24 1.2 °C -4.1 °C 1024.6 hPa Calm     68% 0 mm
22:29 1.2 °C -4.1 °C 1024.6 hPa Calm     68% 0 mm
22:34 1.2 °C -4.1 °C 1024.6 hPa Calm     68% 0 mm
22:39 1.2 °C -4.3 °C 1024.6 hPa Calm     67% 0 mm
22:44 1.2 °C -4.3 °C 1024.6 hPa Calm     67% 0 mm
22:49 1.2 °C -4.1 °C 1024.6 hPa Calm     68% 0 mm
22:54 1.2 °C -4.1 °C 1024.6 hPa Calm     68% 0 mm
22:59 1.2 °C -3.7 °C 1024.6 hPa Calm     70% 0 mm
23:04 1.1 °C -3.6 °C 1024.6 hPa Calm     71% 0 mm
23:09 1.1 °C -3.4 °C 1024.6 hPa SSW 1.6 km/h 1.6 km/h 72% 0 mm
23:14 1.1 °C -3.2 °C 1024.6 hPa Calm   3.2 km/h 73% 0 mm
23:19 0.9 °C -3.2 °C 1024.3 hPa Calm   3.2 km/h 74% 0 mm
23:24 0.9 °C -3.3 °C 1024.3 hPa Calm     73% 0 mm
23:29 0.9 °C -2.9 °C 1024.3 hPa Calm     76% 0 mm
23:34 0.8 °C -2.8 °C 1024.3 hPa Calm     77% 0 mm
23:39 0.7 °C -2.7 °C 1024.3 hPa Calm     78% 0 mm
23:44 0.7 °C -2.3 °C 1024.3 hPa Calm     80% 0 mm
23:49 0.7 °C -2.6 °C 1024.3 hPa Calm     79% 0 mm
23:54 0.7 °C -2.6 °C 1024.3 hPa Calm     79% 0 mm
23:59 0.7 °C -2.2 °C 1024.3 hPa Calm     81% 0 mm
Buffalo, New York, USA
Compliments of Weather Underground - 2 mb